Guayas — HCEG — position and weather

sailwx.info

Track history (hours):
 
Tides and Currents Weather Stations Pressure Air Temp Water Temp Dewpoint Dewpoint Depression Visibility Wind Speed Wind Dir Waves Ship Positions

Guayas (Ecuador)

Ecuadorian Navy training vessel.

Last reported at 2016-Jan-12 05:05 UTC. Time now 2017-Mar-28 08:19 UTC.
Position S 34°10' E 152°11'.
Warning: this ship's position is years out of date!

MMSI: 735059037.

Date/timePositionNaut miles runAvg speedWind from/ knotsBaromVisibWave heightAir tempDewpointWater temp
2016-Jan-12 05:05S 34°10' E 152°11'4 8.4
2016-Jan-12 04:33S 34°10' E 152°06'9 9.3
2016-Jan-12 03:33S 34°07' E 151°55'9 9.0
2016-Jan-12 02:33S 34°05' E 151°45'8 8.2
2016-Jan-12 01:33S 34°02' E 151°35'10 9.2
2016-Jan-12 00:29S 33°57' E 151°25'  
2016-Jan-05 02:28S 39°04' E 147°15'6 6.9
2016-Jan-05 01:33S 39°06' E 147°08'7 7.3
2016-Jan-05 00:32S 39°08' E 146°58'7 7.2
2016-Jan-04 23:33S 39°11' E 146°50'7 7.0
2016-Jan-04 22:33S 39°13' E 146°41'6 6.5
2016-Jan-04 21:33S 39°16' E 146°34'6 5.9
2016-Jan-04 20:33S 39°17' E 146°26'6 6.1
2016-Jan-04 19:32S 39°17' E 146°18'6 6.0
2016-Jan-04 18:33S 39°15' E 146°11'7 7.1
2016-Jan-04 17:33S 39°12' E 146°03'8 7.2
2016-Jan-04 16:30S 39°08' E 145°55'  
Track history (hours):
 
Tides and Currents Weather Stations Pressure Air Temp Water Temp Dewpoint Dewpoint Depression Visibility Wind Speed Wind Dir Waves Ship Positions

Guayas (Ecuador)

Ecuadorian Navy training vessel.

Last reported at 2016-Jan-12 05:05 UTC. Time now 2017-Mar-28 08:19 UTC.
Position S 34°10' E 152°11'.
Warning: this ship's position is years out of date!

MMSI: 735059037.

Date/timePositionNaut miles runAvg speedWind from/ knotsBaromVisibWave heightAir tempDewpointWater temp
2016-Jan-12 05:05S 34°10' E 152°11'4 8.4
2016-Jan-12 04:33S 34°10' E 152°06'9 9.3
2016-Jan-12 03:33S 34°07' E 151°55'9 9.0
2016-Jan-12 02:33S 34°05' E 151°45'8 8.2
2016-Jan-12 01:33S 34°02' E 151°35'10 9.2
2016-Jan-12 00:29S 33°57' E 151°25'  
2016-Jan-05 02:28S 39°04' E 147°15'6 6.9
2016-Jan-05 01:33S 39°06' E 147°08'7 7.3
2016-Jan-05 00:32S 39°08' E 146°58'7 7.2
2016-Jan-04 23:33S 39°11' E 146°50'7 7.0
2016-Jan-04 22:33S 39°13' E 146°41'6 6.5
2016-Jan-04 21:33S 39°16' E 146°34'6 5.9
2016-Jan-04 20:33S 39°17' E 146°26'6 6.1
2016-Jan-04 19:32S 39°17' E 146°18'6 6.0
2016-Jan-04 18:33S 39°15' E 146°11'7 7.1
2016-Jan-04 17:33S 39°12' E 146°03'8 7.2
2016-Jan-04 16:30S 39°08' E 145°55'  

Dump ship's entire track history